sensor_id;sensor_type;location;lat;lon;timestamp;temperature;humidity
41985;DHT22;28319;48.116;10.818;2023-05-27T00:04:46;15.10;99.90
41985;DHT22;28319;48.116;10.818;2023-05-27T00:09:48;15.10;99.90
41985;DHT22;28319;48.116;10.818;2023-05-27T00:14:51;15.10;99.90
41985;DHT22;28319;48.116;10.818;2023-05-27T00:19:53;15.00;99.90
41985;DHT22;28319;48.116;10.818;2023-05-27T00:24:55;15.00;99.90
41985;DHT22;28319;48.116;10.818;2023-05-27T00:29:59;15.20;99.90
41985;DHT22;28319;48.116;10.818;2023-05-27T00:35:01;15.30;99.90
41985;DHT22;28319;48.116;10.818;2023-05-27T00:40:03;15.20;99.90
41985;DHT22;28319;48.116;10.818;2023-05-27T00:45:11;15.20;99.90
41985;DHT22;28319;48.116;10.818;2023-05-27T00:50:14;15.30;99.90
41985;DHT22;28319;48.116;10.818;2023-05-27T00:55:18;15.30;99.90
41985;DHT22;28319;48.116;10.818;2023-05-27T01:00:22;15.20;99.90
41985;DHT22;28319;48.116;10.818;2023-05-27T01:05:24;15.10;99.90
41985;DHT22;28319;48.116;10.818;2023-05-27T01:10:31;15.10;99.90
41985;DHT22;28319;48.116;10.818;2023-05-27T01:15:38;15.00;99.90
41985;DHT22;28319;48.116;10.818;2023-05-27T01:20:41;14.80;99.90
41985;DHT22;28319;48.116;10.818;2023-05-27T01:25:45;14.60;99.90
41985;DHT22;28319;48.116;10.818;2023-05-27T01:30:47;14.50;99.90
41985;DHT22;28319;48.116;10.818;2023-05-27T01:35:53;14.50;99.90
41985;DHT22;28319;48.116;10.818;2023-05-27T01:40:59;14.20;99.90
41985;DHT22;28319;48.116;10.818;2023-05-27T01:46:02;14.20;99.90
41985;DHT22;28319;48.116;10.818;2023-05-27T01:51:04;14.10;99.90
41985;DHT22;28319;48.116;10.818;2023-05-27T01:56:07;14.00;99.90
41985;DHT22;28319;48.116;10.818;2023-05-27T02:01:09;14.00;99.90
41985;DHT22;28319;48.116;10.818;2023-05-27T02:06:13;14.00;99.90
41985;DHT22;28319;48.116;10.818;2023-05-27T02:11:16;14.10;99.90
41985;DHT22;28319;48.116;10.818;2023-05-27T02:16:18;14.20;99.90
41985;DHT22;28319;48.116;10.818;2023-05-27T02:21:21;14.30;99.90
41985;DHT22;28319;48.116;10.818;2023-05-27T02:26:24;14.40;99.90
41985;DHT22;28319;48.116;10.818;2023-05-27T02:31:26;14.40;99.90
41985;DHT22;28319;48.116;10.818;2023-05-27T02:36:29;14.40;99.90
41985;DHT22;28319;48.116;10.818;2023-05-27T02:41:32;14.20;99.90
41985;DHT22;28319;48.116;10.818;2023-05-27T02:46:34;14.20;99.90
41985;DHT22;28319;48.116;10.818;2023-05-27T02:51:36;14.20;99.90
41985;DHT22;28319;48.116;10.818;2023-05-27T02:56:39;14.00;99.90
41985;DHT22;28319;48.116;10.818;2023-05-27T03:01:42;13.70;99.90
41985;DHT22;28319;48.116;10.818;2023-05-27T03:06:44;13.70;99.90
41985;DHT22;28319;48.116;10.818;2023-05-27T03:11:48;13.60;99.90
41985;DHT22;28319;48.116;10.818;2023-05-27T03:16:50;13.50;99.90
41985;DHT22;28319;48.116;10.818;2023-05-27T03:21:51;13.50;99.90
41985;DHT22;28319;48.116;10.818;2023-05-27T03:26:55;13.40;99.90
41985;DHT22;28319;48.116;10.818;2023-05-27T03:31:57;13.40;99.90
41985;DHT22;28319;48.116;10.818;2023-05-27T03:36:59;13.40;99.90
41985;DHT22;28319;48.116;10.818;2023-05-27T03:42:02;13.50;99.90
41985;DHT22;28319;48.116;10.818;2023-05-27T03:47:06;13.50;99.90
41985;DHT22;28319;48.116;10.818;2023-05-27T03:52:08;13.50;99.90
41985;DHT22;28319;48.116;10.818;2023-05-27T03:57:11;13.40;99.90
41985;DHT22;28319;48.116;10.818;2023-05-27T04:02:13;13.50;99.90
41985;DHT22;28319;48.116;10.818;2023-05-27T04:07:15;13.50;99.90
41985;DHT22;28319;48.116;10.818;2023-05-27T04:12:20;13.50;99.90
41985;DHT22;28319;48.116;10.818;2023-05-27T04:17:22;13.50;99.90
41985;DHT22;28319;48.116;10.818;2023-05-27T04:22:24;13.20;99.90
41985;DHT22;28319;48.116;10.818;2023-05-27T04:27:27;12.90;99.90
41985;DHT22;28319;48.116;10.818;2023-05-27T04:32:29;12.80;99.90
41985;DHT22;28319;48.116;10.818;2023-05-27T04:37:33;12.70;99.90
41985;DHT22;28319;48.116;10.818;2023-05-27T04:42:38;12.80;99.90
41985;DHT22;28319;48.116;10.818;2023-05-27T04:47:40;12.70;99.90
41985;DHT22;28319;48.116;10.818;2023-05-27T04:52:42;12.80;99.90
41985;DHT22;28319;48.116;10.818;2023-05-27T04:57:46;12.80;99.90
41985;DHT22;28319;48.116;10.818;2023-05-27T05:02:48;12.60;99.90
41985;DHT22;28319;48.116;10.818;2023-05-27T05:08:00;12.50;99.90
41985;DHT22;28319;48.116;10.818;2023-05-27T05:13:04;12.80;99.90
41985;DHT22;28319;48.116;10.818;2023-05-27T05:18:06;12.80;99.90
41985;DHT22;28319;48.116;10.818;2023-05-27T05:23:08;12.70;99.90
41985;DHT22;28319;48.116;10.818;2023-05-27T05:28:11;12.80;99.90
41985;DHT22;28319;48.116;10.818;2023-05-27T05:33:13;12.90;99.90
41985;DHT22;28319;48.116;10.818;2023-05-27T05:38:15;13.00;99.90
41985;DHT22;28319;48.116;10.818;2023-05-27T05:43:19;13.00;99.90
41985;DHT22;28319;48.116;10.818;2023-05-27T05:48:22;13.10;99.90
41985;DHT22;28319;48.116;10.818;2023-05-27T05:53:23;13.10;99.90
41985;DHT22;28319;48.116;10.818;2023-05-27T05:58:27;13.10;99.90
41985;DHT22;28319;48.116;10.818;2023-05-27T06:03:29;13.40;99.90
41985;DHT22;28319;48.116;10.818;2023-05-27T06:08:31;13.70;99.90
41985;DHT22;28319;48.116;10.818;2023-05-27T06:13:34;13.90;99.90
41985;DHT22;28319;48.116;10.818;2023-05-27T06:18:36;14.20;99.90
41985;DHT22;28319;48.116;10.818;2023-05-27T06:23:38;14.40;99.90
41985;DHT22;28319;48.116;10.818;2023-05-27T06:28:41;14.60;99.90
41985;DHT22;28319;48.116;10.818;2023-05-27T06:33:43;14.70;99.90
41985;DHT22;28319;48.116;10.818;2023-05-27T06:38:45;14.80;99.90
41985;DHT22;28319;48.116;10.818;2023-05-27T06:43:49;15.00;99.90
41985;DHT22;28319;48.116;10.818;2023-05-27T06:48:51;15.20;99.90
41985;DHT22;28319;48.116;10.818;2023-05-27T06:53:53;15.30;99.90
41985;DHT22;28319;48.116;10.818;2023-05-27T06:58:56;15.50;99.90
41985;DHT22;28319;48.116;10.818;2023-05-27T07:03:58;15.60;99.90
41985;DHT22;28319;48.116;10.818;2023-05-27T07:09:00;15.70;99.90
41985;DHT22;28319;48.116;10.818;2023-05-27T07:14:03;15.80;99.90
41985;DHT22;28319;48.116;10.818;2023-05-27T07:19:05;15.80;99.90
41985;DHT22;28319;48.116;10.818;2023-05-27T07:24:07;16.00;99.90
41985;DHT22;28319;48.116;10.818;2023-05-27T07:29:13;16.10;99.90
41985;DHT22;28319;48.116;10.818;2023-05-27T07:34:15;16.20;99.90
41985;DHT22;28319;48.116;10.818;2023-05-27T07:39:17;16.30;99.90
41985;DHT22;28319;48.116;10.818;2023-05-27T07:44:21;16.50;99.90
41985;DHT22;28319;48.116;10.818;2023-05-27T07:49:24;16.70;99.90
41985;DHT22;28319;48.116;10.818;2023-05-27T07:54:26;16.80;99.90
41985;DHT22;28319;48.116;10.818;2023-05-27T07:59:29;16.80;99.90
41985;DHT22;28319;48.116;10.818;2023-05-27T08:04:31;16.90;99.90
41985;DHT22;28319;48.116;10.818;2023-05-27T08:09:33;17.20;99.90
41985;DHT22;28319;48.116;10.818;2023-05-27T08:14:38;17.30;99.90
41985;DHT22;28319;48.116;10.818;2023-05-27T08:19:40;17.50;99.90
41985;DHT22;28319;48.116;10.818;2023-05-27T08:24:42;17.60;99.90
41985;DHT22;28319;48.116;10.818;2023-05-27T08:29:45;17.80;99.90
41985;DHT22;28319;48.116;10.818;2023-05-27T08:34:47;17.80;99.90
41985;DHT22;28319;48.116;10.818;2023-05-27T08:39:49;18.00;99.90
41985;DHT22;28319;48.116;10.818;2023-05-27T08:44:53;18.10;99.90
41985;DHT22;28319;48.116;10.818;2023-05-27T08:49:56;18.30;99.80
41985;DHT22;28319;48.116;10.818;2023-05-27T08:55:00;18.60;99.90
41985;DHT22;28319;48.116;10.818;2023-05-27T09:00:07;18.70;99.90
41985;DHT22;28319;48.116;10.818;2023-05-27T09:05:15;18.80;99.00
41985;DHT22;28319;48.116;10.818;2023-05-27T09:10:18;18.90;98.70
41985;DHT22;28319;48.116;10.818;2023-05-27T09:15:23;19.00;98.90
41985;DHT22;28319;48.116;10.818;2023-05-27T09:20:27;19.10;99.00
41985;DHT22;28319;48.116;10.818;2023-05-27T09:25:30;19.00;98.90
41985;DHT22;28319;48.116;10.818;2023-05-27T09:30:33;19.10;99.00
41985;DHT22;28319;48.116;10.818;2023-05-27T09:35:38;19.40;99.10
41985;DHT22;28319;48.116;10.818;2023-05-27T09:40:43;19.50;98.20
41985;DHT22;28319;48.116;10.818;2023-05-27T09:45:48;19.60;98.00
41985;DHT22;28319;48.116;10.818;2023-05-27T09:50:52;19.80;98.00
41985;DHT22;28319;48.116;10.818;2023-05-27T09:55:54;20.10;97.60
41985;DHT22;28319;48.116;10.818;2023-05-27T10:00:59;20.40;97.40
41985;DHT22;28319;48.116;10.818;2023-05-27T10:06:01;20.30;96.40
41985;DHT22;28319;48.116;10.818;2023-05-27T10:11:04;20.40;97.00
41985;DHT22;28319;48.116;10.818;2023-05-27T10:16:18;20.70;96.00
41985;DHT22;28319;48.116;10.818;2023-05-27T10:21:22;20.70;95.90
41985;DHT22;28319;48.116;10.818;2023-05-27T10:26:32;20.80;95.70
41985;DHT22;28319;48.116;10.818;2023-05-27T10:31:44;21.10;94.70
41985;DHT22;28319;48.116;10.818;2023-05-27T10:36:46;21.20;94.10
41985;DHT22;28319;48.116;10.818;2023-05-27T10:41:50;21.30;93.70
41985;DHT22;28319;48.116;10.818;2023-05-27T10:46:59;21.50;94.90
41985;DHT22;28319;48.116;10.818;2023-05-27T10:52:06;21.50;93.90
41985;DHT22;28319;48.116;10.818;2023-05-27T10:57:11;21.50;92.70
41985;DHT22;28319;48.116;10.818;2023-05-27T11:02:14;21.60;93.60
41985;DHT22;28319;48.116;10.818;2023-05-27T11:07:18;22.30;93.10
41985;DHT22;28319;48.116;10.818;2023-05-27T11:12:22;22.10;92.90
41985;DHT22;28319;48.116;10.818;2023-05-27T11:17:26;22.20;92.20
41985;DHT22;28319;48.116;10.818;2023-05-27T11:22:28;22.40;91.60
41985;DHT22;28319;48.116;10.818;2023-05-27T11:27:36;22.10;92.30
41985;DHT22;28319;48.116;10.818;2023-05-27T11:32:40;22.60;92.10
41985;DHT22;28319;48.116;10.818;2023-05-27T11:37:45;22.40;91.10
41985;DHT22;28319;48.116;10.818;2023-05-27T11:42:47;22.30;91.10
41985;DHT22;28319;48.116;10.818;2023-05-27T11:47:51;22.20;91.50
41985;DHT22;28319;48.116;10.818;2023-05-27T11:52:55;22.50;90.70
41985;DHT22;28319;48.116;10.818;2023-05-27T11:57:57;22.70;91.20
41985;DHT22;28319;48.116;10.818;2023-05-27T12:03:01;22.40;90.50
41985;DHT22;28319;48.116;10.818;2023-05-27T12:08:03;22.50;90.70
41985;DHT22;28319;48.116;10.818;2023-05-27T12:13:06;22.90;90.70
41985;DHT22;28319;48.116;10.818;2023-05-27T12:18:10;23.00;89.60
41985;DHT22;28319;48.116;10.818;2023-05-27T12:23:11;23.10;88.40
41985;DHT22;28319;48.116;10.818;2023-05-27T12:28:13;23.40;88.40
41985;DHT22;28319;48.116;10.818;2023-05-27T12:33:17;23.20;88.70
41985;DHT22;28319;48.116;10.818;2023-05-27T12:38:19;23.30;87.60
41985;DHT22;28319;48.116;10.818;2023-05-27T12:43:21;23.50;86.00
41985;DHT22;28319;48.116;10.818;2023-05-27T12:48:25;23.50;86.50
41985;DHT22;28319;48.116;10.818;2023-05-27T12:53:27;23.20;84.80
41985;DHT22;28319;48.116;10.818;2023-05-27T12:58:30;23.30;86.90
41985;DHT22;28319;48.116;10.818;2023-05-27T13:03:33;23.40;87.60
41985;DHT22;28319;48.116;10.818;2023-05-27T13:08:36;23.90;84.80
41985;DHT22;28319;48.116;10.818;2023-05-27T13:13:37;24.00;85.30
41985;DHT22;28319;48.116;10.818;2023-05-27T13:18:41;23.50;83.20
41985;DHT22;28319;48.116;10.818;2023-05-27T13:23:43;23.50;83.60
41985;DHT22;28319;48.116;10.818;2023-05-27T13:28:45;23.50;83.90
41985;DHT22;28319;48.116;10.818;2023-05-27T13:33:48;23.60;82.10
41985;DHT22;28319;48.116;10.818;2023-05-27T13:38:51;23.50;83.60
41985;DHT22;28319;48.116;10.818;2023-05-27T13:43:53;23.50;82.60
41985;DHT22;28319;48.116;10.818;2023-05-27T13:48:56;23.50;82.70
41985;DHT22;28319;48.116;10.818;2023-05-27T13:53:58;23.50;82.30
41985;DHT22;28319;48.116;10.818;2023-05-27T13:59:01;23.50;83.70
41985;DHT22;28319;48.116;10.818;2023-05-27T14:04:05;23.40;82.70
41985;DHT22;28319;48.116;10.818;2023-05-27T14:09:07;23.50;81.30
41985;DHT22;28319;48.116;10.818;2023-05-27T14:14:09;23.40;79.90
41985;DHT22;28319;48.116;10.818;2023-05-27T14:19:12;23.50;81.40
41985;DHT22;28319;48.116;10.818;2023-05-27T14:24:14;23.20;80.20
41985;DHT22;28319;48.116;10.818;2023-05-27T14:29:17;23.20;80.10
41985;DHT22;28319;48.116;10.818;2023-05-27T14:34:20;23.20;80.70
41985;DHT22;28319;48.116;10.818;2023-05-27T14:39:22;23.20;79.30
41985;DHT22;28319;48.116;10.818;2023-05-27T14:44:24;23.00;80.90
41985;DHT22;28319;48.116;10.818;2023-05-27T14:49:27;23.20;78.70
41985;DHT22;28319;48.116;10.818;2023-05-27T14:54:29;23.10;81.20
41985;DHT22;28319;48.116;10.818;2023-05-27T14:59:31;23.10;79.60
41985;DHT22;28319;48.116;10.818;2023-05-27T15:04:36;23.10;78.80
41985;DHT22;28319;48.116;10.818;2023-05-27T15:09:38;22.70;78.40
41985;DHT22;28319;48.116;10.818;2023-05-27T15:14:40;22.70;78.20
41985;DHT22;28319;48.116;10.818;2023-05-27T15:19:43;22.80;77.50
41985;DHT22;28319;48.116;10.818;2023-05-27T15:24:45;22.60;76.90
41985;DHT22;28319;48.116;10.818;2023-05-27T15:29:48;22.50;79.80
41985;DHT22;28319;48.116;10.818;2023-05-27T15:34:51;22.20;79.20
41985;DHT22;28319;48.116;10.818;2023-05-27T15:39:53;22.20;79.10
41985;DHT22;28319;48.116;10.818;2023-05-27T15:44:55;22.10;79.20
41985;DHT22;28319;48.116;10.818;2023-05-27T15:49:59;22.00;77.80
41985;DHT22;28319;48.116;10.818;2023-05-27T15:55:01;22.10;78.40
41985;DHT22;28319;48.116;10.818;2023-05-27T16:00:03;22.00;79.20
41985;DHT22;28319;48.116;10.818;2023-05-27T16:05:08;22.00;79.20
41985;DHT22;28319;48.116;10.818;2023-05-27T16:10:13;21.90;78.60
41985;DHT22;28319;48.116;10.818;2023-05-27T16:15:15;21.80;79.00
41985;DHT22;28319;48.116;10.818;2023-05-27T16:20:19;21.80;77.70
41985;DHT22;28319;48.116;10.818;2023-05-27T16:25:22;21.80;79.20
41985;DHT22;28319;48.116;10.818;2023-05-27T16:30:25;21.70;77.20
41985;DHT22;28319;48.116;10.818;2023-05-27T16:35:29;21.80;78.30
41985;DHT22;28319;48.116;10.818;2023-05-27T16:40:31;21.70;77.40
41985;DHT22;28319;48.116;10.818;2023-05-27T16:45:33;21.50;77.50
41985;DHT22;28319;48.116;10.818;2023-05-27T16:50:36;21.40;77.80
41985;DHT22;28319;48.116;10.818;2023-05-27T16:55:38;21.30;77.40
41985;DHT22;28319;48.116;10.818;2023-05-27T17:00:41;21.20;75.00
41985;DHT22;28319;48.116;10.818;2023-05-27T17:05:44;21.10;75.80
41985;DHT22;28319;48.116;10.818;2023-05-27T17:10:46;21.10;76.20
41985;DHT22;28319;48.116;10.818;2023-05-27T17:15:48;20.90;76.60
41985;DHT22;28319;48.116;10.818;2023-05-27T17:20:52;20.80;77.10
41985;DHT22;28319;48.116;10.818;2023-05-27T17:25:54;20.60;75.60
41985;DHT22;28319;48.116;10.818;2023-05-27T17:30:56;20.60;75.00
41985;DHT22;28319;48.116;10.818;2023-05-27T17:35:59;20.50;76.30
41985;DHT22;28319;48.116;10.818;2023-05-27T17:41:01;20.40;75.60
41985;DHT22;28319;48.116;10.818;2023-05-27T17:46:06;20.30;75.30
41985;DHT22;28319;48.116;10.818;2023-05-27T17:51:10;20.20;74.30
41985;DHT22;28319;48.116;10.818;2023-05-27T17:56:12;20.10;74.90
41985;DHT22;28319;48.116;10.818;2023-05-27T18:01:15;20.10;75.50
41985;DHT22;28319;48.116;10.818;2023-05-27T18:06:18;20.00;75.70
41985;DHT22;28319;48.116;10.818;2023-05-27T18:11:21;19.90;76.50
41985;DHT22;28319;48.116;10.818;2023-05-27T18:16:23;19.80;77.60
41985;DHT22;28319;48.116;10.818;2023-05-27T18:21:26;19.70;78.20
41985;DHT22;28319;48.116;10.818;2023-05-27T18:26:29;19.70;79.40
41985;DHT22;28319;48.116;10.818;2023-05-27T18:31:31;19.60;80.50
41985;DHT22;28319;48.116;10.818;2023-05-27T18:36:35;19.40;80.50
41985;DHT22;28319;48.116;10.818;2023-05-27T18:41:37;19.30;81.00
41985;DHT22;28319;48.116;10.818;2023-05-27T18:46:39;19.30;81.90
41985;DHT22;28319;48.116;10.818;2023-05-27T18:51:43;19.20;82.20
41985;DHT22;28319;48.116;10.818;2023-05-27T18:56:45;19.40;83.20
41985;DHT22;28319;48.116;10.818;2023-05-27T19:01:47;19.20;83.70
41985;DHT22;28319;48.116;10.818;2023-05-27T19:06:50;19.10;84.40
41985;DHT22;28319;48.116;10.818;2023-05-27T19:11:52;19.00;84.00
41985;DHT22;28319;48.116;10.818;2023-05-27T19:16:54;18.90;84.40
41985;DHT22;28319;48.116;10.818;2023-05-27T19:21:58;18.90;84.80
41985;DHT22;28319;48.116;10.818;2023-05-27T19:27:00;18.80;85.00
41985;DHT22;28319;48.116;10.818;2023-05-27T19:32:03;18.80;85.70
41985;DHT22;28319;48.116;10.818;2023-05-27T19:37:06;18.80;85.30
41985;DHT22;28319;48.116;10.818;2023-05-27T19:42:08;18.80;85.70
41985;DHT22;28319;48.116;10.818;2023-05-27T19:47:10;18.70;86.40
41985;DHT22;28319;48.116;10.818;2023-05-27T19:52:14;18.60;86.90
41985;DHT22;28319;48.116;10.818;2023-05-27T19:57:17;18.50;87.70
41985;DHT22;28319;48.116;10.818;2023-05-27T20:02:18;18.40;88.10
41985;DHT22;28319;48.116;10.818;2023-05-27T20:07:22;18.30;88.60
41985;DHT22;28319;48.116;10.818;2023-05-27T20:12:40;18.20;89.00
41985;DHT22;28319;48.116;10.818;2023-05-27T20:17:42;18.20;89.40
41985;DHT22;28319;48.116;10.818;2023-05-27T20:22:45;18.00;89.70
41985;DHT22;28319;48.116;10.818;2023-05-27T20:27:47;17.70;90.40
41985;DHT22;28319;48.116;10.818;2023-05-27T20:32:49;17.60;90.50
41985;DHT22;28319;48.116;10.818;2023-05-27T20:37:53;17.60;90.70
41985;DHT22;28319;48.116;10.818;2023-05-27T20:42:55;17.60;90.90
41985;DHT22;28319;48.116;10.818;2023-05-27T20:47:57;17.50;91.10
41985;DHT22;28319;48.116;10.818;2023-05-27T20:53:04;17.30;91.40
41985;DHT22;28319;48.116;10.818;2023-05-27T20:58:06;17.30;91.30
41985;DHT22;28319;48.116;10.818;2023-05-27T21:03:08;17.50;90.90
41985;DHT22;28319;48.116;10.818;2023-05-27T21:08:12;17.50;91.00
41985;DHT22;28319;48.116;10.818;2023-05-27T21:13:14;17.50;91.30
41985;DHT22;28319;48.116;10.818;2023-05-27T21:18:15;17.30;91.50
41985;DHT22;28319;48.116;10.818;2023-05-27T21:23:19;17.20;91.40
41985;DHT22;28319;48.116;10.818;2023-05-27T21:28:21;17.30;91.50
41985;DHT22;28319;48.116;10.818;2023-05-27T21:33:23;17.30;91.50
41985;DHT22;28319;48.116;10.818;2023-05-27T21:38:27;17.30;91.40
41985;DHT22;28319;48.116;10.818;2023-05-27T21:43:32;17.20;91.60
41985;DHT22;28319;48.116;10.818;2023-05-27T21:48:34;17.20;91.80
41985;DHT22;28319;48.116;10.818;2023-05-27T21:53:37;17.20;91.70
41985;DHT22;28319;48.116;10.818;2023-05-27T21:58:39;17.10;92.10
41985;DHT22;28319;48.116;10.818;2023-05-27T22:03:41;16.70;92.60
41985;DHT22;28319;48.116;10.818;2023-05-27T22:08:45;16.70;92.40
41985;DHT22;28319;48.116;10.818;2023-05-27T22:13:47;16.80;92.40
41985;DHT22;28319;48.116;10.818;2023-05-27T22:18:53;16.70;92.40
41985;DHT22;28319;48.116;10.818;2023-05-27T22:23:56;16.70;92.50
41985;DHT22;28319;48.116;10.818;2023-05-27T22:28:58;16.70;92.70
41985;DHT22;28319;48.116;10.818;2023-05-27T22:34:00;16.60;92.60
41985;DHT22;28319;48.116;10.818;2023-05-27T22:39:04;16.50;92.60
41985;DHT22;28319;48.116;10.818;2023-05-27T22:44:06;16.50;92.80
41985;DHT22;28319;48.116;10.818;2023-05-27T22:49:08;16.30;93.10
41985;DHT22;28319;48.116;10.818;2023-05-27T22:54:11;16.30;93.00
41985;DHT22;28319;48.116;10.818;2023-05-27T22:59:14;16.20;93.10
41985;DHT22;28319;48.116;10.818;2023-05-27T23:04:16;16.10;93.10
41985;DHT22;28319;48.116;10.818;2023-05-27T23:09:19;16.00;93.30
41985;DHT22;28319;48.116;10.818;2023-05-27T23:14:21;15.80;93.40
41985;DHT22;28319;48.116;10.818;2023-05-27T23:19:23;15.80;93.40
41985;DHT22;28319;48.116;10.818;2023-05-27T23:24:26;15.60;94.00
41985;DHT22;28319;48.116;10.818;2023-05-27T23:29:28;15.50;93.50
41985;DHT22;28319;48.116;10.818;2023-05-27T23:34:30;15.50;93.80
41985;DHT22;28319;48.116;10.818;2023-05-27T23:39:34;15.40;93.80
41985;DHT22;28319;48.116;10.818;2023-05-27T23:44:36;15.30;94.10
41985;DHT22;28319;48.116;10.818;2023-05-27T23:49:38;15.40;93.90
41985;DHT22;28319;48.116;10.818;2023-05-27T23:54:41;15.30;94.10
41985;DHT22;28319;48.116;10.818;2023-05-27T23:59:43;15.20;94.50
